AirNav   Textron
 
 292 users online  

KAQP Appleton Municipal Airport
Appleton, Minnesota, USA

GOING TO APPLETON?


FAA INFORMATION EFFECTIVE 09 NOVEMBER 2017

Location

FAA Identifier: AQP
Lat/Long: 45-13-39.0063N / 096-00-16.3059W
45-13.650105N / 096-00.271765W
45.2275018 / -96.0045294
(estimated)
Elevation: 1021 ft. / 311.2 m (surveyed)
Variation: 05E (1995)
From city: 2 miles NE of APPLETON, MN
Time zone: UTC -6 (UTC -5 during Daylight Saving Time)
Zip code: 56208

Airport Operations

Airport use: Open to the public
Activation date: 06/1942
Control tower: no
ARTCC: MINNEAPOLIS CENTER
FSS: PRINCETON FLIGHT SERVICE STATION
NOTAMs facility: AQP (NOTAM-D service available)
Attendance: UNATNDD
Pattern altitude: 1821 ft. MSL
Wind indicator: lighted
Segmented circle: no
Lights: ACTVT MIRL RY 13/31 - CTAF.
Beacon: white-green (lighted land airport)
Operates sunset to sunrise.

Airport Communications

CTAF: 122.9
WX AWOS-3: 118.5 (320-289-1265)
WX AWOS-3 at BBB (16 nm NE): 118.45 (320-843-3242)
WX AWOS-3 at DXX (16 nm SW): 118.975 (320-598-3863)
WX AWOS-3 at VVV (18 nm W): 119.225 (320-839-2363)
WX AWOS-3 at MVE (20 nm SE): 111.6 (320-269-5830)
  • COMMUNICATIONS PROVIDED BY PRINCETON RADIO ON FREQ 122.45.

Nearby radio navigation aids

VOR radial/distance  VOR name  Freq  Var
MVEr316/19.7MONTEVIDEO VOR/DME111.6005E
MOXr179/20.3MORRIS VOR/DME109.6005E
BDHr276/37.7WILLMAR VOR/DME113.7004E

 
NDB name  Hdg/Dist  Freq  Var  ID
APPLETONat field35605EAQP .- --.- .--.
BENSON243/16.123905EBBB -... -... -...
DAWSON/MADISON024/16.434103EDXX -.. -..- -..-
ORTONVILLE099/18.133205EVVV ...- ...- ...-
GLENWOOD226/38.234603EGHW --. .... .--

Airport Services

Parking: tiedowns
Airframe service: NONE
Powerplant service: NONE
Bottled oxygen: NONE
Bulk oxygen: NONE

Runway Information

Runway 13/31

Dimensions: 3500 x 75 ft. / 1067 x 23 m
Surface: asphalt, in fair condition
CRACKING.
Runway edge lights: medium intensity
RY 13 VISUAL LIGHTING ON INSTRUMENT RY.
RUNWAY 13  RUNWAY 31
Latitude: 45-13.817333N45-13.407000N
Longitude: 096-00.514000W095-59.941833W
Elevation: 1020.0 ft.1018.7 ft.
Gradient: 0.2%0.2%
Traffic pattern: leftleft
Runway heading: 130 magnetic, 135 true310 magnetic, 315 true
Markings: nonprecision, in fair conditionnonprecision, in fair condition
Touchdown point: yes, no lightsyes, no lights

Runway 4/22

Dimensions: 2770 x 157 ft. / 844 x 48 m
Surface: turf, in good condition
Runway edge markings: 04/22 MKD WITH YELLOW CONES.
Operational restrictions: CLOSED WINTER MONTHS.
RUNWAY 4  RUNWAY 22
Latitude: 45-13.537667N45-13.860000N
Longitude: 096-00.556167W096-00.100000W
Elevation: 1019.0 ft.1021.0 ft.
Traffic pattern: leftleft
Runway heading: 039 magnetic, 044 true220 magnetic, 225 true
Touchdown point: yes, no lightsyes, no lights

Airport Ownership and Management from official FAA records

Ownership: Publicly-owned
Owner: CITY OF APPLETON
323 W. SCHLIEMAN AVE.
APPLETON, MN 56208
Phone 320-289-1363
Manager: GREG RUETHER
149 S MUNSTERMAN
APPLETON, MN 56208
Phone (320) 413-0089

Airport Operational Statistics

Aircraft based on the field: 12
Single engine airplanes: 12
    
Aircraft operations: avg 46/week *
83% local general aviation
17% transient general aviation
* for 12-month period ending 30 June 2017

Instrument Procedures

NOTE: All procedures below are presented as PDF files. If you need a reader for these files, you should download the free Adobe Reader.

NOT FOR NAVIGATION. Please procure official charts for flight.
FAA instrument procedures published for use between 9 November 2017 at 0901Z and 7 December 2017 at 0900Z.

 
IAPs - Instrument Approach Procedures
RNAV (GPS) RWY 13   download (156KB)
NDB RWY 13   download (141KB)
NOTE: Special Alternate Minimums apply   download (53KB)
NOTE: Special Take-Off Minimums/Departure Procedures apply   download (156KB)

Other nearby airports with instrument procedures:

KBBB - Benson Municipal Airport (16 nm NE)
KDXX - Lac Qui Parle County Airport (16 nm SW)
KVVV - Ortonville Municipal Airport-Martinson Field (18 nm W)
KMVE - Montevideo-Chippewa County Airport (20 nm SE)
KMOX - Morris Municipal Airport - Charlie Schmidt Field (20 nm N)
 
Loc | Ops | Rwys | IFR | FBO | Links
Com | Nav | Svcs | Stats | Notes


 
Area around KAQP (Appleton Municipal Airport)
 
Road maps at: MapQuest Bing Google
 
Aerial photo
WARNING: Photo may not be current or correct
Aerial photo of KAQP (Appleton Municipal Airport)
Photo by Kreg Anderson
Photo taken 23-Sep-2012
looking west.

Do you have a better or more recent aerial photo of Appleton Municipal Airport that you would like to share? If so, please send us your photo.

 
Sectional chart

 
Airport distance calculator
Flying to Appleton Municipal Airport? Find the distance to fly.

From to KAQP

Sunrise and sunset
Times for 24-Nov-2017
 Local
(UTC-6)
 Zulu
(UTC)
Morning civil twilight07:0313:03
Sunrise07:3513:35
Sunset16:4622:46
Evening civil twilight17:1923:19

Current date and time
Zulu (UTC)  24-Nov-2017 08:26:37
Local (UTC-6)  24-Nov-2017 02:26:37
 
METAR
KAQP 240815Z AUTO 23007KT 10SM CLR 11/03 A2941 RMK AO2
KBBB 
16nm E 
240813Z AUTO 20005KT 10SM CLR 04/02 A2943 RMK AO2
KDXX 
16nm SW 
240814Z AUTO 23011KT 10SM CLR 13/04 A2943 RMK AO2
KVVV 
18nm W 
240814Z AUTO 35005KT 10SM CLR 08/03 A2940 RMK AO2 TSNO
KMVE 
20nm SE 
240812Z AUTO 25007KT 10SM CLR 09/04 A2943 RMK AO2
TAF
KAXN 
46nm NE 
240520Z 2406/2506 22011KT P6SM SCT200 FM241400 28015G20KT P6SM -SHRA OVC080 FM241700 31019G26KT P6SM SCT050 FM250000 31015KT P6SM SKC
NOTAMs
Click for the latest NOTAMs
NOTAMs are issued by the DoD/FAA and will open in a separate window not controlled by AirNav.

 

 
 

Would you like to see your business listed on this page?

 If your business provides an interesting product or service to pilots, flight crews, aircraft, or users of the Appleton Municipal Airport, you should consider listing it here.  To start the listing process, click on the button below
 
Add a business
 

Other Pages about Appleton Municipal Airport

PDF page(s) from the Minnesota Airport Directory
 
Update a link
 
Copyright © AirNav, LLC. All rights reserved. Privacy Policy  Contact